• Join FlightAware (Why Join?)
  • Login
  • US Flag 
05:33PM EDT


 

Airport Tracker/Info


-or-


 

Live Flight TrackerFlight Track Log ✈ AWE73 ✈ 24-May-2012 ✈ KPHX - KSEA

Flight Track Log - Related Links

Times and Time Zones

All times are in EDT time to prevent confusion due to time zone crossing. See the AWE73 flight status page for this flight to view local times or setup timezone preferences in your user account.

Time Position Orientation Groundspeed Altitude Reporting Facility
EDT Latitude Longitude Course Direction KTS MPH feet Rate Location/Type
07:59PM 33.4380 -111.9581 266° West  Level FlightAware Approximate
07:59PM 33.4333 -112.0333 327° Northwest 192 221 1,900  Level Phoenix TRACON
08:04PM 33.5675 -112.1383 35° Northeast 314 361 9,200 1,680 Climbing Albuquerque Center
08:05PM 33.6450 -112.0728 34° Northeast 349 402 10,500 1,800 Climbing Albuquerque Center
08:06PM 33.7311 -112.0028 35° Northeast 363 418 12,800 1,920 Climbing Albuquerque Center
08:07PM 33.8025 -111.9417 34° Northeast 374 430 14,400 1,800 Climbing Albuquerque Center
08:08PM 33.9017 -111.8597 36° Northeast 379 436 16,500 1,920 Climbing Albuquerque Center
08:09PM 33.9964 -111.7772 25° Northeast 379 436 18,300 2,040 Climbing Albuquerque Center
08:10PM 34.1008 -111.7175 348° North 404 465 20,600 1,800 Climbing Albuquerque Center
08:11PM 34.2000 -111.7428 350° North 380 437 22,000 1,380 Climbing Albuquerque Center
08:12PM 34.3119 -111.7664 348° North 393 452 23,400 1,500 Climbing Albuquerque Center
08:13PM 34.4236 -111.7950 349° North 398 458 25,000 1,320 Climbing Albuquerque Center
08:14PM 34.5372 -111.8214 350° North 410 472 26,100 900 Climbing Albuquerque Center
08:15PM 34.6572 -111.8481 350° North 420 483 26,900 1,020 Climbing Albuquerque Center
08:16PM 34.7772 -111.8747 351° North 426 490 28,200 1,140 Climbing Albuquerque Center
08:17PM 34.8975 -111.8992 349° North 431 496 29,200 960 Climbing Albuquerque Center
08:18PM 35.1436 -111.9578 349° North 444 511 31,100 1,080 Climbing Los Angeles Center
08:19PM 35.2636 -111.9875 350° North 449 517 32,400 1,200 Climbing Los Angeles Center
08:20PM 35.3856 -112.0144 350° North 449 517 33,500 1,260 Climbing Los Angeles Center
08:21PM 35.5033 -112.0392 349° North 444 511 35,000 960 Climbing Los Angeles Center
08:22PM 35.6064 -112.0644 350° North 425 489 35,500 480 Climbing Los Angeles Center
08:23PM 35.7197 -112.0894 349° North 420 483 36,000 240 Climbing Los Angeles Center
08:24PM 35.8356 -112.1172 349° North 414 476 36,000  Level Los Angeles Center
08:25PM 35.9469 -112.1450 340° North 414 476 36,000  Level Los Angeles Center
08:26PM 36.0550 -112.1936 337° Northwest 414 476 36,000  Level Los Angeles Center
08:27PM 36.1589 -112.2478 341° North 414 476 36,000  Level Los Angeles Center
08:28PM 36.2667 -112.2939 338° Northwest 409 471 36,000  Level Los Angeles Center
08:29PM 36.3789 -112.3506 339° North 404 465 36,000  Level Los Angeles Center
08:30PM 36.4850 -112.4022 337° Northwest 398 458 36,000  Level Los Angeles Center
08:31PM 36.5889 -112.4569 339° North 398 458 36,000  Level Los Angeles Center
08:32PM 36.6947 -112.5089 337° Northwest 398 458 36,000  Level Los Angeles Center
08:33PM 36.7961 -112.5614 339° North 398 458 36,000  Level Los Angeles Center
08:34PM 36.8894 -112.6064 338° Northwest 398 458 36,000  Level Los Angeles Center
08:37PM 37.1331 -112.7317 338° Northwest 396 456 36,000  Level Salt Lake Center
08:38PM 37.2378 -112.7853 338° Northwest 397 457 36,000  Level Salt Lake Center
08:39PM 37.3653 -112.8508 331° Northwest 401 461 36,000  Level Salt Lake Center
08:40PM 37.4653 -112.9197 327° Northwest 396 456 36,000  Level Salt Lake Center
08:41PM 37.5442 -112.9844 327° Northwest 404 465 36,100  Climbing Salt Lake Center
08:42PM 37.6414 -113.0650 327° Northwest 402 463 36,100 -60 Level Salt Lake Center
08:43PM 37.7561 -113.1603 326° Northwest 401 461 36,000 -60 Descending Salt Lake Center
08:44PM 37.8508 -113.2397 327° Northwest 402 463 36,000  Level Salt Lake Center
08:45PM 37.9458 -113.3186 326° Northwest 400 460 36,000  Level Salt Lake Center
08:46PM 38.0406 -113.3986 327° Northwest 402 463 36,000  Level Salt Lake Center
08:47PM 38.1347 -113.4778 327° Northwest 401 461 36,000  Level Salt Lake Center
08:48PM 38.2289 -113.5569 326° Northwest 400 460 36,000  Level Salt Lake Center
08:49PM 38.3222 -113.6361 326° Northwest 398 458 36,000  Level Salt Lake Center
08:50PM 38.4153 -113.7153 326° Northwest 397 457 36,000  Level Salt Lake Center
08:51PM 38.5103 -113.7964 326° Northwest 401 461 36,000  Level Salt Lake Center
08:52PM 38.6064 -113.8789 326° Northwest 407 468 36,100  Climbing Salt Lake Center
08:53PM 38.7022 -113.9606 326° Northwest 407 468 36,100 -60 Level Salt Lake Center
08:54PM 38.7986 -114.0450 326° Northwest 411 473 36,000  Descending Salt Lake Center
08:56PM 38.8947 -114.1286 326° Northwest 410 472 36,100  Climbing Salt Lake Center
08:57PM 39.0094 -114.2278 326° Northwest 409 471 36,100 -60 Level Salt Lake Center
08:58PM 39.1019 -114.3094 326° Northwest 401 461 36,000 -60 Descending Salt Lake Center
08:59PM 39.1931 -114.3897 325° Northwest 396 456 36,000  Level Salt Lake Center
09:00PM 39.2808 -114.4700 327° Northwest 390 449 36,000  Level Salt Lake Center
09:01PM 39.3675 -114.5425 333° Northwest 387 445 36,000  Level Salt Lake Center
09:02PM 39.4772 -114.6156 332° Northwest 396 456 36,000  Level Salt Lake Center
09:03PM 39.5694 -114.6794 330° Northwest 394 453 36,000  Level Salt Lake Center
09:04PM 39.6733 -114.7558 330° Northwest 388 447 36,000  Level Salt Lake Center
09:05PM 39.7619 -114.8219 332° Northwest 386 444 36,000  Level Salt Lake Center
09:06PM 39.8672 -114.8961 330° Northwest 385 443 36,000  Level Salt Lake Center
09:07PM 39.9567 -114.9625 331° Northwest 386 444 36,000  Level Salt Lake Center
09:08PM 40.0478 -115.0292 331° Northwest 390 449 36,100  Climbing Salt Lake Center
09:09PM 40.1542 -115.1069 331° Northwest 391 450 36,000 -60 Descending Salt Lake Center
09:10PM 40.2447 -115.1736 331° Northwest 391 450 36,000  Level Salt Lake Center
09:11PM 40.3508 -115.2514 331° Northwest 391 450 36,100  Climbing Salt Lake Center
09:12PM 40.4428 -115.3181 329° Northwest 393 452 36,000 -60 Descending Salt Lake Center
09:13PM 40.5408 -115.3961 331° Northwest 381 438 36,000  Level Salt Lake Center
09:14PM 40.6297 -115.4611 331° Northwest 382 440 36,000  Level Salt Lake Center
09:15PM 40.7303 -115.5361 330° Northwest 377 434 36,000  Level Salt Lake Center
09:16PM 40.8194 -115.6039 331° Northwest 381 438 36,000  Level Salt Lake Center
09:17PM 40.9108 -115.6714 330° Northwest 388 447 36,000  Level Salt Lake Center
09:18PM 41.0169 -115.7519 331° Northwest 391 450 36,100  Climbing Salt Lake Center
09:19PM 41.1103 -115.8219 330° Northwest 397 457 36,000 -60 Descending Salt Lake Center
09:20PM 41.2192 -115.9056 330° Northwest 402 463 36,000  Level Salt Lake Center
09:21PM 41.3117 -115.9758 330° Northwest 402 463 36,000  Level Salt Lake Center
09:22PM 41.4206 -116.0583 330° Northwest 403 464 36,000  Level Salt Lake Center
09:23PM 41.5136 -116.1303 330° Northwest 404 465 36,000  Level Salt Lake Center
09:24PM 41.6222 -116.2147 329° Northwest 404 465 36,000  Level Salt Lake Center
09:25PM 41.7167 -116.2894 330° Northwest 409 471 36,000  Level Salt Lake Center
09:26PM 41.8275 -116.3761 330° Northwest 412 474 36,000  Level Salt Lake Center
09:27PM 41.9306 -116.4556 330° Northwest 411 473 36,000  Level Salt Lake Center
09:28PM 42.0303 -116.5339 330° Northwest 413 475 36,000  Level Salt Lake Center
09:30PM 42.1258 -116.6083 329° Northwest 413 475 36,000  Level Salt Lake Center
09:31PM 42.2367 -116.6969 330° Northwest 414 476 36,000  Level Salt Lake Center
09:32PM 42.3317 -116.7725 329° Northwest 413 475 36,000  Level Salt Lake Center
09:33PM 42.4269 -116.8486 330° Northwest 414 476 36,000  Level Salt Lake Center
09:34PM 42.5397 -116.9386 329° Northwest 418 481 36,000  Level Salt Lake Center
09:35PM 42.6358 -117.0164 329° Northwest 420 483 36,000  Level Salt Lake Center
09:36PM 42.7492 -117.1086 329° Northwest 423 487 36,100  Climbing Salt Lake Center
09:37PM 42.8469 -117.1878 329° Northwest 425 489 36,100 -60 Level Salt Lake Center
09:38PM 42.9606 -117.2800 329° Northwest 425 489 36,000 -60 Descending Salt Lake Center
09:39PM 43.0575 -117.3603 329° Northwest 425 489 36,000  Level Salt Lake Center
09:40PM 43.1550 -117.4397 329° Northwest 425 489 36,000  Level Salt Lake Center
09:41PM 43.2697 -117.5350 329° Northwest 430 495 36,000  Level Salt Lake Center
09:42PM 43.3669 -117.6144 329° Northwest 425 489 36,100  Climbing Salt Lake Center
09:43PM 43.4800 -117.7086 329° Northwest 424 488 36,000 -60 Descending Salt Lake Center
09:44PM 43.5767 -117.7889 329° Northwest 423 487 36,000  Level Salt Lake Center
09:45PM 43.6903 -117.8844 329° Northwest 425 489 36,000  Level Salt Lake Center
09:46PM 43.7900 -117.9675 329° Northwest 429 494 36,000  Level Seattle Center
09:47PM 43.8886 -118.0497 328° Northwest 430 495 36,000  Level Seattle Center
09:48PM 44.0025 -118.1481 329° Northwest 436 502 36,000  Level Salt Lake Center
09:49PM 44.0944 -118.2239 329° Northwest 433 498 36,000  Level Seattle Center
09:50PM 44.1958 -118.3103 329° Northwest 432 497 36,000  Level Seattle Center
09:51PM 44.2975 -118.3967 328° Northwest 432 497 36,000  Level Seattle Center
09:52PM 44.3989 -118.4847 328° Northwest 432 497 36,000  Level Seattle Center
09:53PM 44.5183 -118.5878 328° Northwest 426 490 36,000  Level Seattle Center
09:54PM 44.6186 -118.6747 328° Northwest 426 490 36,000  Level Seattle Center
09:55PM 44.7192 -118.7619 328° Northwest 427 491 36,000  Level Seattle Center
09:56PM 44.8194 -118.8508 328° Northwest 430 495 36,000  Level Seattle Center
09:57PM 44.9197 -118.9389 328° Northwest 430 495 36,000  Level Seattle Center
09:58PM 45.0211 -119.0275 328° Northwest 432 497 36,000  Level Seattle Center
09:59PM 45.1217 -119.1172 328° Northwest 432 497 36,000  Level Seattle Center
10:00PM 45.2219 -119.2072 328° Northwest 432 497 36,000  Level Seattle Center
10:01PM 45.3433 -119.3169 328° Northwest 436 502 36,000  Level Seattle Center
10:02PM 45.4442 -119.4075 328° Northwest 435 501 36,000  Level Seattle Center
10:03PM 45.5444 -119.4961 327° Northwest 433 498 36,000  Level Seattle Center
10:04PM 45.6433 -119.5872 328° Northwest 430 495 36,000  Level Seattle Center
10:05PM 45.7444 -119.6775 328° Northwest 431 496 36,000  Level Seattle Center
10:06PM 45.8458 -119.7697 328° Northwest 434 499 36,000  Level Seattle Center
10:07PM 45.9475 -119.8625 327° Northwest 436 502 36,000  Level Seattle Center
10:08PM 46.0483 -119.9578 327° Northwest 438 504 36,000  Level Seattle Center
10:09PM 46.1700 -120.0700 327° Northwest 436 502 36,000 -1,020 Level Seattle Center
10:10PM 46.2728 -120.1664 327° Northwest 441 507 34,000 -2,220 Descending Seattle Center
10:11PM 46.3800 -120.2667 327° Northwest 455 524 31,500 -2,520 Descending Seattle Center
10:12PM 46.4856 -120.3667 321° Northwest 457 526 28,900 -2,400 Descending Seattle Center
10:13PM 46.5794 -120.4767 307° West 448 516 26,700 -2,160 Descending Seattle Center
10:14PM 46.6492 -120.6125 304° West 427 491 24,600 -2,040 Descending Seattle Center
10:15PM 46.7139 -120.7508 305° West 419 482 22,600 -1,920 Descending Seattle Center
10:16PM 46.7761 -120.8817 305° West 404 465 20,700 -1,920 Descending Seattle Center
10:17PM 46.8356 -121.0064 314° West 383 441 18,800 -2,220 Descending Seattle Center
10:18PM 46.9203 -121.1356 309° West 365 420 16,200 -2,340 Descending Seattle Center
10:19PM 46.9825 -121.2503 301° West 368 423 14,100 -1,860 Descending Seattle Center
10:21PM 47.0356 -121.3803 302° West 354 407 12,500 -1,320 Descending Seattle Center
10:21PM 47.0606 -121.4400 300° West 332 382 12,000 -420 Descending Seattle Center
10:22PM 47.0942 -121.5256 301° West 315 362 12,000  Level Seattle Center
10:23PM 47.1386 -121.6344 296° West 314 361 12,000 -360 Level Seattle Center
10:24PM 47.1658 -121.7150 285° West 313 360 11,400 -1,200 Descending Seattle Center
10:25PM 47.1883 -121.8350 278° West 301 346 10,000 -720 Descending Seattle Center
10:26PM 47.2003 -121.9575 275° West 310 357 10,000 -720 Level Seattle Center
10:27PM 47.2078 -122.0764 287° West 297 342 8,600 -1,680 Descending Seattle Center
10:28PM 47.2300 -122.1858 264° West 282 325 6,600 -1,860 Descending Seattle Center
10:29PM 47.2217 -122.2975 264° West 274 315 4,900 -1,680 Descending Seattle Center